Time;durP1;ratioP1;P1;durP2;ratioP2;P2;SDS_P1;SDS_P2;PMS_P1;PMS_P2;Temp;Humidity;BMP_temperature;BMP_pressure;BME280_temperature;BME280_humidity;BME280_pressure;Samples;Min_cycle;Max_cycle;Signal;HPM_P1;HPM_P2
2022/09/13 00:00:24;;;;;;;3.13;2.15;;;;;;;-140.72;100.00;52427.38;5029550;28;20474;-65
2022/09/13 00:02:50;;;;;;;4.68;2.58;;;;;;;-140.72;100.00;52415.22;5030270;28;20079;-65
2022/09/13 00:05:15;;;;;;;4.80;2.38;;;;;;;-140.72;100.00;52439.56;5030103;28;20305;-65
2022/09/13 00:07:41;;;;;;;5.43;2.58;;;;;;;-140.72;100.00;52423.31;5029930;28;20057;-64
2022/09/13 00:10:06;;;;;;;4.78;2.50;;;;;;;-140.72;100.00;52415.22;5031009;28;20105;-65
2022/09/13 00:12:32;;;;;;;4.18;2.50;;;;;;;-140.72;100.00;52419.28;5029745;28;20071;-65
2022/09/13 00:14:57;;;;;;;3.55;2.15;;;;;;;-140.72;100.00;52419.28;5040323;28;20287;-64
2022/09/13 00:17:22;;;;;;;3.05;1.95;;;;;;;-140.72;100.00;52415.22;5050050;28;20025;-64
2022/09/13 00:19:48;;;;;;;5.47;2.10;;;;;;;-140.72;100.00;52425.34;5039216;28;20529;-64
2022/09/13 00:22:13;;;;;;;3.92;2.63;;;;;;;-140.72;100.00;52419.28;5029085;28;20040;-66
2022/09/13 00:24:39;;;;;;;5.00;2.72;;;;;;;-140.72;100.00;52419.28;5029793;28;20108;-65
2022/09/13 00:27:04;;;;;;;2.90;2.05;;;;;;;-140.72;100.00;52411.16;5029689;28;20021;-64
2022/09/13 00:29:29;;;;;;;4.47;3.13;;;;;;;-140.72;100.00;52429.41;5029398;28;20033;-65
2022/09/13 00:31:55;;;;;;;5.05;3.05;;;;;;;-140.72;100.00;52417.25;5029932;28;20036;-65
2022/09/13 00:34:20;;;;;;;5.80;2.72;;;;;;;-140.72;100.00;52413.19;5029751;28;20124;-64
2022/09/13 00:36:45;;;;;;;3.90;2.42;;;;;;;-140.72;100.00;52425.34;5029069;28;20116;-64
2022/09/13 00:39:11;;;;;;;4.82;2.60;;;;;;;-140.72;100.00;52411.16;5031608;28;20037;-65
2022/09/13 00:41:37;;;;;;;4.28;2.60;;;;;;;-140.72;100.00;52417.25;5030583;28;20025;-65
2022/09/13 00:44:05;;;;;;;5.35;2.83;;;;;;;-140.72;100.00;52401.00;5030168;28;20032;-65
2022/09/13 00:46:33;;;;;;;3.28;2.22;;;;;;;-140.72;100.00;52431.44;5030314;28;20026;-65
2022/09/13 00:49:17;;;;;;;4.28;2.90;;;;;;;-140.72;100.00;52419.28;5029418;28;20057;-64
2022/09/13 00:51:52;;;;;;;3.90;2.63;;;;;;;-140.72;100.00;52435.50;5028383;28;20033;-65
2022/09/13 00:54:21;;;;;;;3.50;2.35;;;;;;;-140.72;100.00;52419.28;5023817;28;20041;-63
2022/09/13 00:56:53;;;;;;;3.95;2.67;;;;;;;-140.72;100.00;52423.31;5028134;28;20041;-63
2022/09/13 00:59:39;;;;;;;4.57;2.58;;;;;;;-140.72;100.00;52435.50;5031297;28;20457;-63
2022/09/13 01:02:05;;;;;;;5.93;2.63;;;;;;;-140.72;100.00;52403.03;5035157;28;20033;-63
2022/09/13 01:04:34;;;;;;;3.25;2.33;;;;;;;-140.72;100.00;52463.91;5030135;28;20461;-63
2022/09/13 01:07:06;;;;;;;4.07;2.58;;;;;;;-140.72;100.00;52419.28;5031458;28;20061;-64
2022/09/13 01:09:36;;;;;;;3.40;2.47;;;;;;;-140.72;100.00;52415.22;5031696;28;20033;-63
2022/09/13 01:12:27;;;;;;;6.85;2.65;;;;;;;-140.72;100.00;52411.16;5023351;28;20081;-63
2022/09/13 01:14:56;;;;;;;2.97;2.05;;;;;;;-140.72;100.00;52447.69;5023364;28;20052;-63
2022/09/13 01:17:21;;;;;;;4.53;2.77;;;;;;;-140.72;100.00;52433.47;5030506;28;20025;-63
2022/09/13 01:19:50;;;;;;;5.05;3.05;;;;;;;-140.72;100.00;52423.31;5031416;28;20272;-63
2022/09/13 01:22:34;;;;;;;4.72;2.42;;;;;;;-140.72;100.00;52443.63;5028740;28;20112;-63
2022/09/13 01:25:27;;;;;;;3.92;2.95;;;;;;;-140.72;100.00;52421.28;5044293;28;20468;-63
2022/09/13 01:28:29;;;;;;;7.40;3.78;;;;;;;-140.72;100.00;52451.72;5031234;28;20033;-64
2022/09/13 01:31:06;;;;;;;5.38;3.00;;;;;;;-140.72;100.00;52407.09;5023792;28;20029;-64
2022/09/13 01:33:58;;;;;;;5.65;3.53;;;;;;;-140.72;100.00;52427.38;5031536;28;20025;-64
2022/09/13 01:36:48;;;;;;;4.43;3.13;;;;;;;-140.72;100.00;52484.19;5019431;28;20030;-64
2022/09/13 01:39:21;;;;;;;5.68;3.13;;;;;;;-140.72;100.00;52431.44;5028471;28;20025;-65
2022/09/13 01:41:55;;;;;;;6.18;3.92;;;;;;;-140.72;100.00;52447.69;5030598;28;21473;-63
2022/09/13 01:44:37;;;;;;;4.55;3.15;;;;;;;-140.72;100.00;52480.16;5031829;28;20040;-63
2022/09/13 01:47:35;;;;;;;6.43;3.50;;;;;;;-140.72;100.00;52490.28;5030066;28;20037;-64
2022/09/13 01:50:11;;;;;;;7.45;3.67;;;;;;;-140.72;100.00;52451.72;5030556;28;20084;-64
2022/09/13 01:52:55;;;;;;;5.90;3.10;;;;;;;-140.72;100.00;52465.94;5030435;28;20115;-64
2022/09/13 01:55:34;;;;;;;4.70;3.40;;;;;;;-140.72;100.00;52439.56;5025736;28;20049;-63
2022/09/13 01:58:15;;;;;;;4.38;3.08;;;;;;;-140.72;100.00;52465.94;5030378;28;21208;-63
2022/09/13 02:00:52;;;;;;;4.85;3.65;;;;;;;-140.72;100.00;52492.31;5030108;28;20442;-64
2022/09/13 02:03:27;;;;;;;3.90;2.65;;;;;;;-140.72;100.00;52439.56;5033462;28;20030;-63
2022/09/13 02:06:00;;;;;;;9.10;3.22;;;;;;;-140.72;100.00;52463.91;5030525;28;20034;-64
2022/09/13 02:08:36;;;;;;;5.35;3.22;;;;;;;-140.72;100.00;52488.25;5031398;28;20049;-64
2022/09/13 02:11:13;;;;;;;4.25;2.75;;;;;;;-140.72;100.00;52488.25;5031373;28;20099;-64
2022/09/13 02:13:46;;;;;;;6.65;3.75;;;;;;;-140.72;100.00;52439.56;5031141;28;20048;-65
2022/09/13 02:16:19;;;;;;;7.18;3.78;;;;;;;-140.72;100.00;52467.97;5032016;28;20044;-64
2022/09/13 02:18:50;;;;;;;5.80;3.35;;;;;;;-140.72;100.00;52467.97;5035440;28;20037;-64
2022/09/13 02:21:22;;;;;;;13.60;3.60;;;;;;;-140.72;100.00;52498.41;5034148;28;20401;-65
2022/09/13 02:23:53;;;;;;;4.97;2.85;;;;;;;-140.72;100.00;52467.97;5033916;28;20044;-64
2022/09/13 02:26:22;;;;;;;8.65;2.83;;;;;;;-140.72;100.00;52472.03;5034553;28;20055;-64
2022/09/13 02:28:52;;;;;;;6.10;4.25;;;;;;;-140.72;100.00;52476.09;5033385;28;20068;-63
2022/09/13 02:31:25;;;;;;;5.00;3.58;;;;;;;-140.72;100.00;52431.44;5047593;28;20048;-64
2022/09/13 02:33:56;;;;;;;5.07;3.58;;;;;;;-140.72;100.00;52480.16;5034459;28;20474;-64
2022/09/13 02:36:28;;;;;;;5.60;2.95;;;;;;;-140.72;100.00;52480.16;5033109;28;20036;-64
2022/09/13 02:39:01;;;;;;;5.53;3.80;;;;;;;-140.72;100.00;52467.97;5034079;28;20033;-64
2022/09/13 02:41:53;;;;;;;5.10;3.08;;;;;;;-140.72;100.00;52472.03;5033986;28;20374;-64
2022/09/13 02:44:28;;;;;;;5.78;3.15;;;;;;;-140.72;100.00;52508.56;5034182;28;20022;-64
2022/09/13 02:47:02;;;;;;;6.47;3.20;;;;;;;-140.72;100.00;52463.91;5034492;28;20136;-64
2022/09/13 02:49:50;;;;;;;4.10;3.08;;;;;;;-140.72;100.00;52461.88;5021939;28;20065;-64
2022/09/13 02:52:40;;;;;;;5.15;3.92;;;;;;;-140.72;100.00;52445.66;5034255;28;20095;-63
2022/09/13 02:55:20;;;;;;;5.20;3.40;;;;;;;-140.72;100.00;52474.06;5030104;28;20450;-65
2022/09/13 02:58:07;;;;;;;5.43;3.25;;;;;;;-140.72;100.00;52443.63;5033395;28;20026;-64
2022/09/13 03:00:33;;;;;;;6.43;3.58;;;;;;;-140.72;100.00;52465.94;5034076;28;20026;-63
2022/09/13 03:03:03;;;;;;;8.75;3.95;;;;;;;-140.72;100.00;52490.28;5032329;28;20022;-64
2022/09/13 03:05:29;;;;;;;7.95;4.57;;;;;;;-140.72;100.00;52472.03;5033839;28;20125;-64
2022/09/13 03:07:56;;;;;;;10.15;4.20;;;;;;;-140.72;100.00;52463.91;5033848;28;20069;-63
2022/09/13 03:10:22;;;;;;;6.20;3.65;;;;;;;-140.72;100.00;52490.28;5032429;28;20536;-63
2022/09/13 03:13:36;;;;;;;7.28;4.00;;;;;;;-140.72;100.00;52427.38;5033810;28;20037;-63
2022/09/13 03:16:20;;;;;;;5.35;3.40;;;;;;;-140.72;100.00;52470.00;5039516;28;20057;-63
2022/09/13 03:19:16;;;;;;;5.97;4.10;;;;;;;-140.72;100.00;52439.56;5035504;28;20106;-64
2022/09/13 03:22:03;;;;;;;5.10;4.07;;;;;;;-140.72;100.00;52482.16;5033790;28;20040;-63
2022/09/13 03:24:51;;;;;;;6.38;3.40;;;;;;;-140.72;100.00;52447.69;5051169;28;20103;-63
2022/09/13 03:27:29;;;;;;;4.95;3.38;;;;;;;-140.72;100.00;52467.97;5021278;28;20116;-65
2022/09/13 03:29:57;;;;;;;5.43;3.92;;;;;;;-140.72;100.00;52478.13;5022632;28;20053;-64
2022/09/13 03:32:39;;;;;;;4.45;3.15;;;;;;;-140.72;100.00;52472.03;5032124;28;20108;-64
2022/09/13 03:35:17;;;;;;;5.35;3.47;;;;;;;-140.72;100.00;52472.03;5024625;28;20072;-64
2022/09/13 03:38:01;;;;;;;5.70;3.60;;;;;;;-140.72;100.00;52488.25;5017696;28;20469;-64
2022/09/13 03:40:29;;;;;;;10.80;3.50;;;;;;;-140.72;100.00;52484.19;5028846;28;20032;-64
2022/09/13 03:42:57;;;;;;;4.05;2.88;;;;;;;-140.72;100.00;52476.09;5029875;28;20057;-63
2022/09/13 03:45:27;;;;;;;5.70;3.70;;;;;;;-140.72;100.00;52478.13;5020242;28;20347;-63
2022/09/13 03:47:54;;;;;;;5.80;4.43;;;;;;;-140.72;100.00;52504.50;5030252;28;20104;-63
2022/09/13 03:50:22;;;;;;;6.72;4.03;;;;;;;-140.72;100.00;52494.34;5029630;28;20063;-63
2022/09/13 03:52:54;;;;;;;7.03;3.83;;;;;;;-140.72;100.00;52476.09;5020690;28;20034;-63
2022/09/13 03:55:21;;;;;;;7.00;4.10;;;;;;;-140.72;100.00;52516.66;5027356;28;20464;-63
2022/09/13 03:57:46;;;;;;;8.45;3.80;;;;;;;-140.72;100.00;52492.31;5030264;28;20036;-64
2022/09/13 04:00:13;;;;;;;5.75;3.90;;;;;;;-140.72;100.00;52474.06;5029388;28;20025;-64
2022/09/13 04:02:39;;;;;;;5.90;4.47;;;;;;;-140.72;100.00;52459.84;5030317;28;20044;-63
2022/09/13 04:05:05;;;;;;;5.60;4.25;;;;;;;-140.72;100.00;52482.16;5029891;28;20567;-63
2022/09/13 04:07:31;;;;;;;8.25;4.38;;;;;;;-140.72;100.00;52508.56;5029193;28;20056;-62
2022/09/13 04:09:56;;;;;;;7.50;4.40;;;;;;;-140.72;100.00;52486.22;5023160;28;20104;-64
2022/09/13 04:12:21;;;;;;;6.15;4.22;;;;;;;-140.72;100.00;52498.41;5039378;28;20028;-64
2022/09/13 04:14:47;;;;;;;5.25;4.30;;;;;;;-140.72;100.00;52451.72;5029531;28;20037;-63
2022/09/13 04:17:13;;;;;;;5.82;3.83;;;;;;;-140.72;100.00;52492.31;5029865;28;20040;-63
2022/09/13 04:19:39;;;;;;;5.47;4.13;;;;;;;-140.72;100.00;52500.44;5016832;28;20033;-63
2022/09/13 04:22:05;;;;;;;5.15;4.22;;;;;;;-140.72;100.00;52514.63;5030344;28;20432;-63
2022/09/13 04:24:30;;;;;;;6.88;3.67;;;;;;;-140.72;100.00;52520.72;5030137;28;20032;-63
2022/09/13 04:26:57;;;;;;;5.68;4.15;;;;;;;-140.72;100.00;52530.88;5029259;28;20382;-64
2022/09/13 04:29:24;;;;;;;4.85;3.38;;;;;;;-140.72;100.00;52498.41;5029400;28;20471;-64
2022/09/13 04:31:51;;;;;;;7.22;4.32;;;;;;;-140.72;100.00;52494.34;5029443;28;20026;-65
2022/09/13 04:34:17;;;;;;;6.47;3.83;;;;;;;-140.72;100.00;52518.69;5024068;28;20036;-64
2022/09/13 04:36:43;;;;;;;3.65;2.80;;;;;;;-140.72;100.00;52504.50;5045735;28;20128;-64
2022/09/13 04:39:09;;;;;;;7.00;4.05;;;;;;;-140.72;100.00;52534.94;5041980;28;20108;-64
2022/09/13 04:41:34;;;;;;;6.05;4.10;;;;;;;-140.72;100.00;52500.44;5037912;28;20031;-63
2022/09/13 04:44:01;;;;;;;6.55;4.55;;;;;;;-140.72;100.00;52484.19;5029547;28;20093;-63
2022/09/13 04:46:27;;;;;;;5.65;4.07;;;;;;;-140.72;100.00;52482.16;5029627;28;20381;-63
2022/09/13 04:48:52;;;;;;;5.05;3.33;;;;;;;-140.72;100.00;52494.34;5028946;28;20025;-63
2022/09/13 04:51:18;;;;;;;5.50;4.35;;;;;;;-140.72;100.00;52522.75;5037384;28;20128;-63
2022/09/13 04:53:44;;;;;;;6.15;4.40;;;;;;;-140.72;100.00;52532.91;5033442;28;20032;-64
2022/09/13 04:56:11;;;;;;;6.72;4.20;;;;;;;-140.72;100.00;52524.78;5047077;28;20108;-64
2022/09/13 04:58:36;;;;;;;5.47;4.20;;;;;;;-140.72;100.00;52476.09;5036942;28;20079;-64
2022/09/13 05:01:03;;;;;;;5.72;4.38;;;;;;;-140.72;100.00;52551.16;5034324;28;20025;-63
2022/09/13 05:03:33;;;;;;;5.10;3.50;;;;;;;-140.72;100.00;52472.03;5030546;28;20037;-63
2022/09/13 05:06:09;;;;;;;5.88;3.80;;;;;;;-140.72;100.00;52480.16;5038569;28;20406;-63
2022/09/13 05:08:35;;;;;;;5.72;3.90;;;;;;;-140.72;100.00;52559.28;5029244;28;20033;-65
2022/09/13 05:11:01;;;;;;;5.97;4.00;;;;;;;-140.72;100.00;52512.59;5028318;28;20503;-64
2022/09/13 05:13:27;;;;;;;6.05;3.78;;;;;;;-140.72;100.00;52500.44;5034522;28;20210;-64
2022/09/13 05:16:02;;;;;;;7.43;4.80;;;;;;;-140.72;100.00;52541.03;5036065;28;20033;-65
2022/09/13 05:18:29;;;;;;;6.35;4.32;;;;;;;-140.72;100.00;52532.91;5015902;28;20025;-63
2022/09/13 05:20:56;;;;;;;6.85;4.28;;;;;;;-140.72;100.00;52528.84;5029123;28;20120;-64
2022/09/13 05:23:22;;;;;;;5.47;4.03;;;;;;;-140.72;100.00;52504.50;5030776;28;20419;-64
2022/09/13 05:25:54;;;;;;;5.75;3.88;;;;;;;-140.72;100.00;52512.59;5030867;28;20034;-64
2022/09/13 05:28:20;;;;;;;10.43;5.22;;;;;;;-140.72;100.00;52496.38;5029236;28;20021;-65
2022/09/13 05:30:59;;;;;;;7.25;5.13;;;;;;;-140.72;100.00;52532.91;5029568;28;20444;-63
2022/09/13 05:33:27;;;;;;;9.90;6.70;;;;;;;-140.72;100.00;52498.41;5030559;28;20025;-64
2022/09/13 05:35:52;;;;;;;9.43;5.72;;;;;;;-140.72;100.00;52508.56;5027853;28;20021;-65
2022/09/13 05:38:20;;;;;;;8.25;6.47;;;;;;;-140.72;100.00;52476.09;5028070;28;20029;-65
2022/09/13 05:40:45;;;;;;;9.80;6.55;;;;;;;-140.72;100.00;52504.50;5028240;28;20079;-64
2022/09/13 05:43:11;;;;;;;11.45;7.63;;;;;;;-140.72;100.00;52463.91;5029423;28;20029;-64
2022/09/13 05:45:37;;;;;;;12.18;7.68;;;;;;;-140.72;100.00;52492.31;5029001;28;20056;-65
2022/09/13 05:48:02;;;;;;;8.57;6.38;;;;;;;-140.72;100.00;52532.91;5029750;28;20053;-65
2022/09/13 05:50:28;;;;;;;9.35;6.07;;;;;;;-140.72;100.00;52480.16;5027998;28;20030;-64
2022/09/13 05:52:54;;;;;;;9.75;6.22;;;;;;;-140.72;100.00;52506.53;5039526;28;20063;-64
2022/09/13 05:55:20;;;;;;;11.25;8.05;;;;;;;-140.72;100.00;52494.34;5040354;28;20029;-64
2022/09/13 05:57:46;;;;;;;11.48;7.13;;;;;;;-140.72;100.00;52528.84;5047725;28;20504;-65
2022/09/13 06:00:12;;;;;;;11.52;6.28;;;;;;;-140.72;100.00;52504.50;5036360;28;20060;-64
2022/09/13 06:02:38;;;;;;;9.95;6.03;;;;;;;-140.72;100.00;52492.31;5035530;28;20145;-64
2022/09/13 06:05:03;;;;;;;10.27;6.75;;;;;;;-140.72;100.00;52494.34;5031878;28;20672;-64
2022/09/13 06:07:29;;;;;;;9.77;7.28;;;;;;;-140.72;100.00;52447.69;5032498;28;20517;-64
2022/09/13 06:09:54;;;;;;;11.00;6.72;;;;;;;-140.72;100.00;52506.53;5034388;28;20688;-65
2022/09/13 06:12:19;;;;;;;9.98;7.30;;;;;;;-140.72;100.00;52498.41;5032860;28;20029;-64
2022/09/13 06:14:45;;;;;;;9.48;7.57;;;;;;;-140.72;100.00;52476.09;5037009;28;20140;-64
2022/09/13 06:17:10;;;;;;;10.18;6.93;;;;;;;-140.72;100.00;52524.78;5032450;28;20026;-64
2022/09/13 06:19:35;;;;;;;12.93;7.53;;;;;;;-140.72;100.00;52486.22;5031268;28;20091;-64
2022/09/13 06:22:01;;;;;;;13.65;7.60;;;;;;;-140.72;100.00;52474.06;5032389;28;20022;-64
2022/09/13 06:24:26;;;;;;;10.55;7.30;;;;;;;-140.72;100.00;52472.03;5043309;28;20467;-65
2022/09/13 06:26:52;;;;;;;12.88;7.78;;;;;;;-140.72;100.00;52482.16;5041734;28;20217;-64
2022/09/13 06:29:18;;;;;;;13.10;7.78;;;;;;;-140.72;100.00;52486.22;5029872;28;20033;-64
2022/09/13 06:31:44;;;;;;;8.35;6.43;;;;;;;-140.72;100.00;52465.94;5040628;28;20377;-65
2022/09/13 06:34:15;;;;;;;9.57;7.20;;;;;;;-140.72;100.00;52453.75;5034105;28;20071;-65
2022/09/13 06:36:40;;;;;;;9.38;6.32;;;;;;;-140.72;100.00;52429.41;5031670;28;20040;-65
2022/09/13 06:39:06;;;;;;;11.82;7.07;;;;;;;-140.72;100.00;52476.09;5034433;28;20467;-64
2022/09/13 06:41:32;;;;;;;13.02;7.93;;;;;;;-140.72;100.00;52467.97;5031377;28;20033;-65
2022/09/13 06:43:59;;;;;;;9.63;7.57;;;;;;;-140.72;100.00;52405.06;5032061;28;20021;-65
2022/09/13 06:46:27;;;;;;;9.57;6.32;;;;;;;-140.72;100.00;52419.28;5032992;28;20057;-64
2022/09/13 06:48:53;;;;;;;10.82;6.80;;;;;;;-140.72;100.00;52423.31;5031231;28;20394;-64
2022/09/13 06:51:23;;;;;;;10.35;6.45;;;;;;;-140.72;100.00;52449.72;5031896;28;20033;-64
2022/09/13 06:53:51;;;;;;;7.68;5.93;;;;;;;-140.72;100.00;52425.34;5028893;28;20048;-64
2022/09/13 06:56:31;;;;;;;9.50;5.22;;;;;;;-140.72;100.00;52419.28;5043633;28;20131;-65
2022/09/13 06:58:59;;;;;;;9.20;5.78;;;;;;;-140.72;100.00;52439.56;5031352;28;20026;-64
2022/09/13 07:01:33;;;;;;;10.68;4.55;;;;;;;-140.72;100.00;52419.28;5030583;28;20056;-66
2022/09/13 07:04:08;;;;;;;6.05;4.40;;;;;;;-140.72;100.00;52415.22;5031026;28;20021;-64
2022/09/13 07:06:45;;;;;;;4.30;2.80;;;;;;;-140.72;100.00;52431.44;5031229;28;20068;-65
2022/09/13 07:09:20;;;;;;;5.28;4.18;;;;;;;-140.72;100.00;52427.38;5031161;28;20044;-64
2022/09/13 07:11:47;;;;;;;5.32;3.70;;;;;;;-140.72;100.00;52423.31;5031111;28;20473;-64
2022/09/13 07:14:18;;;;;;;4.30;2.58;;;;;;;-140.72;100.00;52378.69;5032125;28;20021;-66
2022/09/13 07:16:45;;;;;;;4.38;2.40;;;;;;;-140.72;100.00;52403.03;5030222;28;20238;-64
2022/09/13 07:19:30;;;;;;;3.65;2.25;;;;;;;-140.72;100.00;52380.72;5034877;28;20025;-64
2022/09/13 07:21:56;;;;;;;3.67;2.30;;;;;;;-140.72;100.00;52427.38;5028311;28;20061;-65
2022/09/13 07:24:22;;;;;;;5.15;2.08;;;;;;;-140.72;100.00;52419.28;4978572;28;20397;-64
2022/09/13 07:26:48;;;;;;;2.90;1.92;;;;;;;-140.72;100.00;52411.16;5029105;28;20050;-64
2022/09/13 07:29:17;;;;;;;2.67;1.60;;;;;;;-140.72;100.00;52372.59;5031266;28;20322;-64
2022/09/13 07:31:45;;;;;;;4.05;1.35;;;;;;;-140.72;100.00;52411.16;5029213;28;20037;-63
2022/09/13 07:34:21;;;;;;;3.13;1.20;;;;;;;-140.72;100.00;52459.84;5026803;28;20081;-63
2022/09/13 07:36:47;;;;;;;3.35;1.10;;;;;;;-140.72;100.00;52390.84;5026690;28;20026;-64
2022/09/13 07:39:14;;;;;;;3.13;1.98;;;;;;;-140.72;100.00;52398.97;5026352;28;20504;-64
2022/09/13 07:41:40;;;;;;;4.05;1.50;;;;;;;-140.72;100.00;52386.81;5027340;28;20036;-64
2022/09/13 07:44:06;;;;;;;3.55;1.02;;;;;;;-140.72;100.00;52407.09;5029984;28;20033;-64
2022/09/13 07:46:40;;;;;;;2.45;1.63;;;;;;;-140.72;100.00;52427.38;5025874;28;20135;-64
2022/09/13 07:49:05;;;;;;;4.05;2.00;;;;;;;-140.72;100.00;52411.16;5024618;28;20033;-64
2022/09/13 07:51:33;;;;;;;6.38;1.60;;;;;;;-140.72;100.00;52409.13;5030616;28;20457;-65
2022/09/13 07:54:01;;;;;;;2.28;1.38;;;;;;;-140.72;100.00;52431.44;5030545;28;20480;-65
2022/09/13 07:56:30;;;;;;;2.97;1.25;;;;;;;-140.72;100.00;52417.25;5027021;28;20029;-64
2022/09/13 07:58:59;;;;;;;3.33;1.00;;;;;;;-140.72;100.00;52370.56;5027831;28;20053;-64
2022/09/13 08:01:27;;;;;;;1.42;0.68;;;;;;;-140.72;100.00;52384.78;5029707;28;20061;-64
2022/09/13 08:03:58;;;;;;;4.32;1.30;;;;;;;-140.72;100.00;52405.06;5031280;28;20043;-64
2022/09/13 08:06:25;;;;;;;2.65;1.23;;;;;;;-140.72;100.00;52403.03;5028053;28;20505;-64
2022/09/13 08:08:50;;;;;;;3.72;1.00;;;;;;;-140.72;100.00;52388.84;5032112;28;20032;-65
2022/09/13 08:11:19;;;;;;;6.35;1.10;;;;;;;-140.72;100.00;52398.97;5031647;28;20021;-64
2022/09/13 08:13:46;;;;;;;1.45;0.80;;;;;;;-140.72;100.00;52409.13;5027906;28;20040;-65
2022/09/13 08:16:12;;;;;;;1.52;0.77;;;;;;;-140.72;100.00;52386.81;5025096;28;20048;-64
2022/09/13 08:18:42;;;;;;;2.08;1.25;;;;;;;-140.72;100.00;52382.75;5027333;28;20037;-64
2022/09/13 08:21:11;;;;;;;4.65;1.00;;;;;;;-140.72;100.00;52374.63;5028207;28;20040;-64
2022/09/13 08:23:36;;;;;;;2.60;1.17;;;;;;;-140.72;100.00;52390.84;5022154;28;20041;-65
2022/09/13 08:26:02;;;;;;;2.00;1.17;;;;;;;-140.72;100.00;52342.16;5024015;28;20491;-64
2022/09/13 08:28:33;;;;;;;1.88;1.23;;;;;;;-140.72;100.00;52374.63;5026903;28;20025;-73
2022/09/13 08:31:04;;;;;;;2.08;1.40;;;;;;;-140.72;100.00;52350.28;5026094;28;20017;-76
2022/09/13 08:33:31;;;;;;;2.80;1.23;;;;;;;-140.72;100.00;52378.69;5024119;28;20032;-73
2022/09/13 08:35:57;;;;;;;3.13;0.98;;;;;;;-140.72;100.00;52325.94;5026135;28;20542;-74
2022/09/13 08:38:22;;;;;;;3.55;1.10;;;;;;;-140.72;100.00;52338.09;5029808;28;20052;-73
2022/09/13 08:41:01;;;;;;;3.70;1.00;;;;;;;-140.72;100.00;52332.03;5029953;28;20029;-76
2022/09/13 08:43:42;;;;;;;1.42;0.70;;;;;;;-140.72;100.00;52307.66;5025624;28;20085;-73
2022/09/13 08:46:22;;;;;;;2.30;1.17;;;;;;;-140.72;100.00;52364.47;5026912;28;20888;-73
2022/09/13 08:48:51;;;;;;;2.55;0.65;;;;;;;-140.72;100.00;52362.44;5026580;28;20041;-73
2022/09/13 08:51:39;;;;;;;2.13;0.93;;;;;;;-140.72;100.00;52338.09;5024819;28;20044;-72
2022/09/13 08:54:04;;;;;;;1.48;0.80;;;;;;;-140.72;100.00;52305.63;5027627;28;20030;-73
2022/09/13 08:56:48;;;;;;;1.33;0.70;;;;;;;-140.72;100.00;52323.91;5026709;28;20056;-74
2022/09/13 08:59:19;;;;;;;3.15;0.93;;;;;;;-140.72;100.00;52303.59;5026884;28;20542;-73
2022/09/13 09:01:51;;;;;;;1.02;0.60;;;;;;;-140.72;100.00;52313.75;5027243;28;20029;-73
2022/09/13 09:04:52;;;;;;;0.80;0.50;;;;;;;-140.72;100.00;52261.00;5038525;28;20021;-72
2022/09/13 09:07:25;;;;;;;1.58;0.90;;;;;;;-140.72;100.00;52293.47;5016134;28;20540;-73
2022/09/13 09:10:01;;;;;;;0.80;0.47;;;;;;;-140.72;100.00;52301.59;5023221;28;20080;-71
2022/09/13 09:12:42;;;;;;;1.27;0.50;;;;;;;-140.72;100.00;52323.91;5027948;28;20040;-72
2022/09/13 09:15:47;;;;;;;0.60;0.30;;;;;;;-140.72;100.00;52327.97;5025975;28;20029;-74
2022/09/13 09:18:31;;;;;;;2.47;0.45;;;;;;;-140.72;100.00;52323.91;5017481;28;20120;-73
2022/09/13 09:20:59;;;;;;;0.30;0.20;;;;;;;-140.72;100.00;52321.88;5024442;28;20071;-74
2022/09/13 09:23:50;;;;;;;3.25;0.77;;;;;;;-140.72;100.00;52273.19;5028075;28;20026;-73
2022/09/13 09:26:28;;;;;;;1.15;0.40;;;;;;;-140.72;100.00;52265.06;5029935;28;20037;-72
2022/09/13 09:28:54;;;;;;;0.70;0.30;;;;;;;-140.72;100.00;52271.16;5032379;28;20487;-71
2022/09/13 09:31:39;;;;;;;0.38;0.25;;;;;;;-140.72;100.00;52265.06;5030171;28;20065;-73
2022/09/13 09:34:21;;;;;;;1.15;0.30;;;;;;;-140.72;100.00;52277.22;5030745;28;20104;-73
2022/09/13 09:37:03;;;;;;;2.03;0.47;;;;;;;-140.72;100.00;52254.91;5032598;28;20505;-75
2022/09/13 09:39:32;;;;;;;0.50;0.30;;;;;;;-140.72;100.00;52281.28;5033076;28;20080;-73
2022/09/13 09:41:58;;;;;;;2.07;0.60;;;;;;;-140.72;100.00;52269.13;5029702;28;20037;-74
2022/09/13 09:44:30;;;;;;;3.67;0.47;;;;;;;-140.72;100.00;52236.66;5029969;28;20021;-74
2022/09/13 09:47:18;;;;;;;0.88;0.40;;;;;;;-140.72;100.00;52256.94;5030169;28;20072;-73
2022/09/13 09:50:08;;;;;;;1.13;0.40;;;;;;;-140.72;100.00;52220.41;5030639;28;20041;-73
2022/09/13 09:52:56;;;;;;;2.28;0.50;;;;;;;-140.72;100.00;52200.13;5029809;28;20386;-72
2022/09/13 09:55:29;;;;;;;0.82;0.40;;;;;;;-140.72;100.00;52183.91;5031772;28;20431;-72
2022/09/13 09:58:03;;;;;;;0.73;0.45;;;;;;;-140.72;100.00;52218.38;5029480;28;20036;-75
2022/09/13 10:00:33;;;;;;;1.33;0.28;;;;;;;-140.72;98.45;52220.41;5029749;28;20091;-72
2022/09/13 10:03:02;;;;;;;0.32;0.20;;;;;;;-140.72;100.00;52265.06;5029922;28;20409;-73
2022/09/13 10:05:29;;;;;;;0.47;0.25;;;;;;;-140.72;100.00;52297.53;5029557;28;20052;-71
2022/09/13 10:08:06;;;;;;;0.60;0.20;;;;;;;-140.72;100.00;52309.69;5029489;28;20068;-71
2022/09/13 10:10:35;;;;;;;1.23;0.50;;;;;;;-140.72;100.00;52269.13;5028503;28;20381;-75
2022/09/13 10:13:02;;;;;;;1.70;0.50;;;;;;;-140.72;100.00;52232.59;5033036;28;20052;-72
2022/09/13 10:15:33;;;;;;;0.40;0.20;;;;;;;-140.72;94.86;52212.31;5028184;28;20029;-72
2022/09/13 10:18:15;;;;;;;0.73;0.25;;;;;;;-140.72;53.75;52175.78;5029376;28;20025;-72
2022/09/13 10:20:41;;;;;;;1.20;0.52;;;;;;;-140.72;0.00;52163.59;5029568;28;20052;-72
2022/09/13 10:23:12;;;;;;;0.65;0.35;;;;;;;-140.72;0.00;52149.41;5029459;28;20033;-73
2022/09/13 10:25:39;;;;;;;1.17;0.17;;;;;;;-140.72;0.00;52135.19;5029369;28;20056;-74
2022/09/13 10:28:11;;;;;;;4.00;0.35;;;;;;;-140.72;0.00;52151.44;5029980;28;20350;-72
2022/09/13 10:31:04;;;;;;;1.08;0.32;;;;;;;-140.72;0.00;52096.66;5029433;28;20052;-74
2022/09/13 10:33:39;;;;;;;1.55;0.45;;;;;;;-140.72;0.00;52039.84;5029020;28;20519;-72
2022/09/13 10:36:13;;;;;;;1.27;0.10;;;;;;;-140.72;0.00;52106.78;5028696;28;20367;-71
2022/09/13 10:38:41;;;;;;;0.20;0.10;;;;;;;-140.72;0.00;52106.78;5030023;28;20038;-71
2022/09/13 10:41:10;;;;;;;1.60;0.32;;;;;;;-140.72;0.00;52151.44;5031790;28;20033;-71
2022/09/13 10:43:36;;;;;;;2.58;0.52;;;;;;;-140.72;0.00;52139.25;5029950;28;20567;-72
2022/09/13 10:46:04;;;;;;;0.80;0.22;;;;;;;-140.72;0.00;52175.78;5031312;28;20427;-72
2022/09/13 10:48:42;;;;;;;0.60;0.20;;;;;;;-140.72;0.00;52145.34;5028363;28;20095;-72
2022/09/13 10:51:26;;;;;;;0.57;0.27;;;;;;;-140.72;0.00;52202.16;5027753;28;20041;-72
2022/09/13 10:54:22;;;;;;;1.10;0.30;;;;;;;-140.72;0.00;52092.59;5026699;28;20323;-72
2022/09/13 10:56:49;;;;;;;0.50;0.10;;;;;;;-140.72;0.00;52143.31;5027378;28;20389;-72
2022/09/13 10:59:28;;;;;;;0.95;0.38;;;;;;;-140.72;0.00;52163.59;5029325;28;20021;-72
2022/09/13 11:02:12;;;;;;;;;;;;;;;-140.72;0.00;52068.25;5027280;28;20025;-74
2022/09/13 11:04:53;;;;;;;4.32;0.35;;;;;;;-140.72;0.00;52021.56;5026838;28;20375;-73
2022/09/13 11:07:41;;;;;;;1.23;0.50;;;;;;;-140.72;0.00;51938.41;5026745;28;20060;-72
2022/09/13 11:10:19;;;;;;;0.98;0.17;;;;;;;-140.72;0.00;51983.03;5027972;28;20044;-73
2022/09/13 11:12:54;;;;;;;1.75;0.30;;;;;;;-140.72;0.00;52039.84;5028995;28;20037;-70
2022/09/13 11:15:40;;;;;;;0.20;0.10;;;;;;;-140.72;0.00;52110.84;5027444;28;20477;-72
2022/09/13 11:18:05;;;;;;;0.93;0.30;;;;;;;-140.72;0.00;52068.25;5028360;28;20746;-73
2022/09/13 11:20:40;;;;;;;0.30;0.20;;;;;;;-140.72;0.00;52047.97;5028133;28;20033;-75
2022/09/13 11:23:30;;;;;;;1.27;0.20;;;;;;;-140.72;0.00;52039.84;5026799;28;20798;-71
2022/09/13 11:26:13;;;;;;;0.50;0.15;;;;;;;-140.72;0.00;52021.56;5026158;28;20036;-73
2022/09/13 11:29:10;;;;;;;1.40;0.20;;;;;;;-140.72;0.00;51989.13;5027922;28;20080;-71
2022/09/13 11:32:06;;;;;;;0.60;0.10;;;;;;;-140.72;0.00;52005.34;5026104;28;20045;-71